Time;durP1;ratioP1;P1;durP2;ratioP2;P2;SDS_P1;SDS_P2;PMS_P1;PMS_P2;Temp;Humidity;BMP_temperature;BMP_pressure;BME280_temperature;BME280_humidity;BME280_pressure;Samples;Min_cycle;Max_cycle;Signal;HPM_P1;HPM_P2
2022/10/18 00:00:32;;;;;;;12.25;8.02;;;;;;;;;;5072046;28;20468;-73
2022/10/18 00:02:58;;;;;;;13.07;7.85;;;;;;;;;;5072214;28;20127;-73
2022/10/18 00:05:25;;;;;;;11.07;7.57;;;;;;;;;;5073193;28;20084;-73
2022/10/18 00:07:51;;;;;;;10.65;8.35;;;;;;;;;;5073384;28;20048;-73
2022/10/18 00:10:17;;;;;;;13.82;7.47;;;;;;;;;;5073220;28;20048;-73
2022/10/18 00:12:44;;;;;;;13.05;8.13;;;;;;;;;;5073369;28;20435;-73
2022/10/18 00:15:15;;;;;;;10.98;7.57;;;;;;;;;;5073257;28;20411;-74
2022/10/18 00:17:41;;;;;;;13.10;8.00;;;;;;;;;;5073068;28;20143;-73
2022/10/18 00:20:08;;;;;;;10.35;7.35;;;;;;;;;;5072981;28;20131;-73
2022/10/18 00:22:38;;;;;;;12.32;7.95;;;;;;;;;;5073274;28;20562;-73
2022/10/18 00:25:05;;;;;;;29.58;9.45;;;;;;;;;;5072929;28;20407;-73
2022/10/18 00:27:31;;;;;;;27.58;9.52;;;;;;;;;;5073169;28;20131;-73
2022/10/18 00:29:58;;;;;;;24.25;10.63;;;;;;;;;;5072928;28;20128;-74
2022/10/18 00:32:25;;;;;;;17.92;9.30;;;;;;;;;;5072515;28;20064;-73
2022/10/18 00:34:51;;;;;;;20.13;9.95;;;;;;;;;;5073268;28;20080;-73
2022/10/18 00:37:18;;;;;;;26.20;10.70;;;;;;;;;;5072721;28;20079;-73
2022/10/18 00:39:44;;;;;;;28.90;12.10;;;;;;;;;;5073091;28;20083;-73
2022/10/18 00:42:15;;;;;;;24.48;10.77;;;;;;;;;;5072789;28;20551;-73
2022/10/18 00:44:41;;;;;;;18.27;10.43;;;;;;;;;;5072789;28;20048;-74
2022/10/18 00:47:09;;;;;;;22.77;9.98;;;;;;;;;;5072769;28;20147;-73
2022/10/18 00:49:41;;;;;;;19.77;9.93;;;;;;;;;;5072613;28;20044;-73
2022/10/18 00:52:10;;;;;;;25.70;10.10;;;;;;;;;;5072676;28;20163;-74
2022/10/18 00:54:37;;;;;;;20.92;11.05;;;;;;;;;;5072571;28;20059;-73
2022/10/18 00:57:05;;;;;;;20.85;10.65;;;;;;;;;;5072547;28;20135;-73
2022/10/18 00:59:31;;;;;;;23.17;9.40;;;;;;;;;;5072389;28;20044;-73
2022/10/18 01:01:57;;;;;;;23.92;10.10;;;;;;;;;;5072393;28;20086;-73
2022/10/18 01:04:24;;;;;;;29.42;10.38;;;;;;;;;;5072008;28;20091;-74
2022/10/18 01:07:09;;;;;;;27.30;10.15;;;;;;;;;;5072107;28;20139;-74
2022/10/18 01:09:40;;;;;;;16.60;9.23;;;;;;;;;;5072051;28;20131;-74
2022/10/18 01:12:19;;;;;;;18.13;10.48;;;;;;;;;;5072067;28;20135;-73
2022/10/18 01:14:53;;;;;;;20.20;10.48;;;;;;;;;;5072489;28;20460;-73
2022/10/18 01:17:35;;;;;;;16.15;10.02;;;;;;;;;;5072042;28;20131;-73
2022/10/18 01:20:20;;;;;;;16.00;9.40;;;;;;;;;;5065295;28;20079;-74
2022/10/18 01:22:49;;;;;;;15.57;9.45;;;;;;;;;;5072043;28;20144;-74
2022/10/18 01:25:21;;;;;;;16.00;9.75;;;;;;;;;;5072137;28;20131;-74
2022/10/18 01:27:48;;;;;;;16.73;9.07;;;;;;;;;;5071810;28;20058;-73
2022/10/18 01:30:20;;;;;;;19.67;10.13;;;;;;;;;;5071879;28;20411;-73
2022/10/18 01:32:49;;;;;;;18.13;10.65;;;;;;;;;;5072226;28;20052;-73
2022/10/18 01:35:18;;;;;;;22.95;9.88;;;;;;;;;;5071844;28;20127;-73
2022/10/18 01:37:46;;;;;;;19.75;11.23;;;;;;;;;;5070404;28;20135;-74
2022/10/18 01:40:14;;;;;;;20.75;10.35;;;;;;;;;;5072144;28;20055;-74
2022/10/18 01:42:43;;;;;;;20.70;10.63;;;;;;;;;;5071868;28;20131;-73
2022/10/18 01:45:11;;;;;;;19.65;9.60;;;;;;;;;;5070925;28;20448;-73
2022/10/18 01:47:37;;;;;;;;;;;;;;;;;;5072094;28;20062;-74
2022/10/18 01:50:04;;;;;;;26.83;10.13;;;;;;;;;;5071854;28;20011;-73
2022/10/18 01:52:31;;;;;;;28.48;10.75;;;;;;;;;;5071653;28;20407;-73
2022/10/18 01:54:59;;;;;;;25.35;10.05;;;;;;;;;;5072017;28;20076;-73
2022/10/18 01:57:29;;;;;;;35.30;10.68;;;;;;;;;;5071861;28;20135;-73
2022/10/18 02:00:15;;;;;;;24.98;9.50;;;;;;;;;;5071366;28;20060;-73
2022/10/18 02:02:54;;;;;;;25.53;9.70;;;;;;;;;;5071503;28;20559;-73
2022/10/18 02:05:30;;;;;;;20.25;9.70;;;;;;;;;;5038914;28;20045;-73
2022/10/18 02:08:02;;;;;;;26.27;8.82;;;;;;;;;;5066208;28;20062;-73
2022/10/18 02:10:49;;;;;;;29.08;8.32;;;;;;;;;;5070310;28;20581;-73
2022/10/18 02:13:18;;;;;;;17.02;9.00;;;;;;;;;;5071611;28;20076;-73
2022/10/18 02:15:48;;;;;;;25.63;9.20;;;;;;;;;;5071652;28;20473;-73
2022/10/18 02:18:17;;;;;;;30.15;10.07;;;;;;;;;;5071569;28;20381;-73
2022/10/18 02:20:44;;;;;;;25.85;9.48;;;;;;;;;;5071214;28;20155;-73
2022/10/18 02:23:12;;;;;;;18.25;9.55;;;;;;;;;;5071241;28;20131;-73
2022/10/18 02:25:39;;;;;;;15.20;8.48;;;;;;;;;;5071259;28;20131;-73
2022/10/18 02:28:05;;;;;;;14.82;9.25;;;;;;;;;;5071360;28;20049;-73
2022/10/18 02:31:01;;;;;;;18.13;9.02;;;;;;;;;;5071136;28;20044;-73
2022/10/18 02:33:46;;;;;;;16.67;9.43;;;;;;;;;;5062234;28;20483;-73
2022/10/18 02:36:22;;;;;;;16.45;8.50;;;;;;;;;;5071333;28;20056;-73
2022/10/18 02:38:51;;;;;;;16.02;8.20;;;;;;;;;;5071090;28;20079;-73
2022/10/18 02:41:25;;;;;;;14.48;8.38;;;;;;;;;;5071274;28;20144;-73
2022/10/18 02:43:51;;;;;;;16.10;7.40;;;;;;;;;;5071131;28;20049;-73
2022/10/18 02:46:19;;;;;;;14.68;8.77;;;;;;;;;;5071018;28;20135;-73
2022/10/18 02:48:45;;;;;;;15.23;7.07;;;;;;;;;;5070155;28;20048;-73
2022/10/18 02:51:12;;;;;;;16.10;4.90;;;;;;;;;;5071258;28;20132;-73
2022/10/18 02:53:38;;;;;;;11.65;6.10;;;;;;;;;;5071180;28;20132;-73
2022/10/18 02:56:04;;;;;;;16.38;5.55;;;;;;;;;;5072208;28;20048;-73
2022/10/18 02:58:31;;;;;;;13.60;5.10;;;;;;;;;;5074709;28;20552;-73
2022/10/18 03:00:57;;;;;;;14.23;5.50;;;;;;;;;;5074747;28;20048;-73
2022/10/18 03:03:24;;;;;;;9.85;5.30;;;;;;;;;;5074658;28;20127;-73
2022/10/18 03:05:51;;;;;;;11.70;5.07;;;;;;;;;;5074577;28;20136;-73
2022/10/18 03:08:17;;;;;;;14.10;4.85;;;;;;;;;;5074507;28;20083;-73
2022/10/18 03:10:44;;;;;;;9.55;4.32;;;;;;;;;;5074570;28;20044;-73
2022/10/18 03:13:11;;;;;;;10.80;4.90;;;;;;;;;;5074470;28;20495;-73
2022/10/18 03:15:37;;;;;;;9.43;4.53;;;;;;;;;;5074706;28;20052;-73
2022/10/18 03:18:04;;;;;;;13.90;5.43;;;;;;;;;;5074298;28;20156;-73
2022/10/18 03:20:30;;;;;;;15.50;4.32;;;;;;;;;;5074444;28;20479;-73
2022/10/18 03:22:57;;;;;;;20.00;4.60;;;;;;;;;;5074251;28;20143;-73
2022/10/18 03:25:23;;;;;;;30.13;5.05;;;;;;;;;;5074293;28;20143;-74
2022/10/18 03:27:49;;;;;;;27.13;4.22;;;;;;;;;;5074315;28;20047;-73
2022/10/18 03:30:16;;;;;;;19.15;4.15;;;;;;;;;;5074406;28;20048;-74
2022/10/18 03:32:42;;;;;;;16.52;3.88;;;;;;;;;;5074115;28;20560;-73
2022/10/18 03:35:09;;;;;;;20.98;4.30;;;;;;;;;;5074120;28;20135;-73
2022/10/18 03:37:35;;;;;;;16.15;4.45;;;;;;;;;;5073969;28;20048;-74
2022/10/18 03:40:02;;;;;;;21.83;4.22;;;;;;;;;;5074421;28;20080;-73
2022/10/18 03:42:28;;;;;;;13.57;4.10;;;;;;;;;;5074026;28;20051;-73
2022/10/18 03:44:55;;;;;;;16.40;4.38;;;;;;;;;;5074267;28;20059;-74
2022/10/18 03:47:22;;;;;;;15.98;3.53;;;;;;;;;;5074123;28;20052;-73
2022/10/18 03:49:48;;;;;;;7.70;3.35;;;;;;;;;;5074116;28;20471;-74
2022/10/18 03:52:19;;;;;;;7.22;3.47;;;;;;;;;;5074027;28;20106;-73
2022/10/18 03:54:46;;;;;;;9.95;3.15;;;;;;;;;;5073711;28;20131;-73
2022/10/18 03:57:12;;;;;;;4.57;3.00;;;;;;;;;;5074117;28;20151;-74
2022/10/18 03:59:38;;;;;;;17.45;3.45;;;;;;;;;;5073511;28;20139;-74
2022/10/18 04:02:05;;;;;;;8.48;3.45;;;;;;;;;;5073820;28;20059;-73
2022/10/18 04:04:31;;;;;;;9.13;3.50;;;;;;;;;;5073477;28;20113;-73
2022/10/18 04:06:58;;;;;;;12.20;3.78;;;;;;;;;;5073102;28;20052;-73
2022/10/18 04:09:24;;;;;;;8.75;4.20;;;;;;;;;;5073114;28;20132;-73
2022/10/18 04:11:51;;;;;;;10.98;4.05;;;;;;;;;;5073694;28;20044;-73
2022/10/18 04:14:20;;;;;;;7.28;3.78;;;;;;;;;;5072113;28;20139;-73
2022/10/18 04:16:46;;;;;;;14.13;4.07;;;;;;;;;;5073350;28;20048;-73
2022/10/18 04:19:12;;;;;;;10.02;3.83;;;;;;;;;;5073571;28;20124;-73
2022/10/18 04:21:39;;;;;;;9.23;4.07;;;;;;;;;;5073180;28;20132;-74
2022/10/18 04:24:05;;;;;;;9.73;3.33;;;;;;;;;;5073477;28;20135;-74
2022/10/18 04:26:32;;;;;;;9.15;3.67;;;;;;;;;;5073264;28;20078;-73
2022/10/18 04:28:58;;;;;;;9.00;3.88;;;;;;;;;;5073118;28;20048;-73
2022/10/18 04:31:24;;;;;;;9.38;4.00;;;;;;;;;;5073486;28;20090;-73
2022/10/18 04:33:51;;;;;;;21.20;4.60;;;;;;;;;;5072852;28;20072;-73
2022/10/18 04:36:17;;;;;;;10.85;4.07;;;;;;;;;;5072920;28;20151;-74
2022/10/18 04:38:44;;;;;;;10.38;4.25;;;;;;;;;;5071609;28;20059;-73
2022/10/18 04:41:10;;;;;;;17.42;4.35;;;;;;;;;;5072929;28;20048;-73
2022/10/18 04:43:36;;;;;;;9.70;4.10;;;;;;;;;;5073101;28;20139;-73
2022/10/18 04:46:03;;;;;;;11.95;4.03;;;;;;;;;;5073044;28;20044;-74
2022/10/18 04:48:29;;;;;;;8.27;4.20;;;;;;;;;;5072621;28;20044;-73
2022/10/18 04:50:56;;;;;;;22.60;4.15;;;;;;;;;;5072546;28;20555;-73
2022/10/18 04:53:22;;;;;;;22.45;4.07;;;;;;;;;;5072755;28;20045;-74
2022/10/18 04:55:49;;;;;;;26.50;4.15;;;;;;;;;;5072607;28;20052;-74
2022/10/18 04:58:16;;;;;;;17.85;4.15;;;;;;;;;;5072766;28;20074;-74
2022/10/18 05:00:43;;;;;;;14.20;3.92;;;;;;;;;;5072252;28;20136;-74
2022/10/18 05:03:11;;;;;;;13.20;4.45;;;;;;;;;;5072629;28;20048;-74
2022/10/18 05:05:37;;;;;;;;;;;;;;;;;;5073021;28;20407;-74
2022/10/18 05:08:23;;;;;;;10.95;3.42;;;;;;;;;;5072196;28;20372;-74
2022/10/18 05:10:50;;;;;;;24.13;4.65;;;;;;;;;;5072327;28;20415;-74
2022/10/18 05:13:16;;;;;;;28.83;4.57;;;;;;;;;;5071100;28;20051;-74
2022/10/18 05:15:44;;;;;;;12.32;3.50;;;;;;;;;;5072210;28;20048;-74
2022/10/18 05:18:11;;;;;;;21.08;4.15;;;;;;;;;;5072338;28;20053;-74
2022/10/18 05:20:37;;;;;;;11.32;3.88;;;;;;;;;;5072376;28;20131;-75
2022/10/18 05:23:03;;;;;;;12.60;3.60;;;;;;;;;;5072229;28;20151;-74
2022/10/18 05:25:30;;;;;;;15.10;3.63;;;;;;;;;;5072091;28;20412;-74
2022/10/18 05:27:56;;;;;;;14.48;4.00;;;;;;;;;;5071814;28;20052;-75
2022/10/18 05:30:23;;;;;;;17.90;4.03;;;;;;;;;;5072089;28;20053;-74
2022/10/18 05:32:49;;;;;;;7.97;4.60;;;;;;;;;;5071930;28;20048;-73
2022/10/18 05:35:16;;;;;;;15.60;3.90;;;;;;;;;;5071948;28;20465;-73
2022/10/18 05:37:42;;;;;;;12.73;4.00;;;;;;;;;;5072018;28;20083;-73
2022/10/18 05:40:09;;;;;;;9.05;3.55;;;;;;;;;;5070574;28;20062;-73
2022/10/18 05:42:35;;;;;;;11.98;3.63;;;;;;;;;;5071964;28;20077;-74
2022/10/18 05:45:02;;;;;;;10.05;3.20;;;;;;;;;;5070788;28;20070;-74
2022/10/18 05:47:28;;;;;;;10.90;3.20;;;;;;;;;;5068045;28;20131;-74
2022/10/18 05:49:55;;;;;;;12.57;3.50;;;;;;;;;;5061196;28;20518;-74
2022/10/18 05:52:21;;;;;;;6.35;3.50;;;;;;;;;;5071701;28;20136;-74
2022/10/18 05:54:47;;;;;;;9.70;3.70;;;;;;;;;;5071670;28;20131;-74
2022/10/18 05:57:14;;;;;;;8.63;3.85;;;;;;;;;;5071601;28;20152;-74
2022/10/18 05:59:40;;;;;;;9.32;4.13;;;;;;;;;;5071728;28;20045;-74
2022/10/18 06:02:08;;;;;;;11.10;4.20;;;;;;;;;;5070259;28;20488;-75
2022/10/18 06:04:34;;;;;;;;;;;;;;;;;;5072081;28;20063;-75
2022/10/18 06:07:01;;;;;;;10.65;4.07;;;;;;;;;;5071530;28;20015;-76
2022/10/18 06:09:29;;;;;;;14.95;4.10;;;;;;;;;;5071483;28;20151;-74
2022/10/18 06:11:56;;;;;;;14.15;4.60;;;;;;;;;;5071430;28;20083;-74
2022/10/18 06:14:23;;;;;;;16.80;4.23;;;;;;;;;;5071687;28;20095;-75
2022/10/18 06:16:49;;;;;;;13.80;4.90;;;;;;;;;;5071641;28;20076;-74
2022/10/18 06:19:15;;;;;;;16.80;5.18;;;;;;;;;;5071736;28;20135;-74
2022/10/18 06:21:42;;;;;;;12.05;4.43;;;;;;;;;;5071618;28;20094;-74
2022/10/18 06:24:09;;;;;;;18.50;4.18;;;;;;;;;;5071387;28;20139;-73
2022/10/18 06:26:35;;;;;;;15.20;4.03;;;;;;;;;;5071199;28;20499;-73
2022/10/18 06:29:01;;;;;;;20.88;3.83;;;;;;;;;;5063070;28;20049;-73
2022/10/18 06:31:28;;;;;;;9.30;3.85;;;;;;;;;;5060038;28;20423;-74
2022/10/18 06:33:56;;;;;;;15.73;4.07;;;;;;;;;;5068857;28;20045;-73
2022/10/18 06:36:23;;;;;;;13.00;3.95;;;;;;;;;;5071191;28;20087;-74
2022/10/18 06:38:49;;;;;;;10.10;3.42;;;;;;;;;;5072342;28;20054;-73
2022/10/18 06:41:16;;;;;;;11.60;3.60;;;;;;;;;;5075065;28;20109;-71
2022/10/18 06:43:46;;;;;;;12.02;3.50;;;;;;;;;;5074680;28;20052;-71
2022/10/18 06:46:12;;;;;;;12.88;3.60;;;;;;;;;;5062533;28;20172;-76
2022/10/18 06:48:39;;;;;;;15.88;3.47;;;;;;;;;;5062095;28;20036;-74
2022/10/18 06:51:06;;;;;;;12.70;3.75;;;;;;;;;;5054582;28;20037;-75
2022/10/18 06:53:34;;;;;;;11.43;3.80;;;;;;;;;;5054617;28;20045;-73
2022/10/18 06:56:10;;;;;;;11.25;3.20;;;;;;;;;;5054469;28;20037;-74
2022/10/18 06:58:36;;;;;;;6.78;3.08;;;;;;;;;;5054680;28;20072;-74
2022/10/18 07:01:07;;;;;;;12.70;3.78;;;;;;;;;;5054232;28;20560;-75
2022/10/18 07:03:36;;;;;;;15.23;3.40;;;;;;;;;;5054069;28;20132;-74
2022/10/18 07:06:03;;;;;;;10.43;3.00;;;;;;;;;;5064310;28;20373;-73
2022/10/18 07:08:30;;;;;;;11.73;3.75;;;;;;;;;;5065970;28;20072;-74
2022/10/18 07:10:56;;;;;;;12.93;3.97;;;;;;;;;;5074532;28;20131;-73
2022/10/18 07:13:23;;;;;;;13.02;3.60;;;;;;;;;;5073290;28;20049;-73
2022/10/18 07:15:59;;;;;;;13.02;3.22;;;;;;;;;;5073466;28;20131;-73
2022/10/18 07:18:25;;;;;;;7.78;3.13;;;;;;;;;;5061583;28;20523;-73
2022/10/18 07:20:52;;;;;;;9.45;2.83;;;;;;;;;;5069249;28;20076;-73
2022/10/18 07:23:19;;;;;;;12.90;3.65;;;;;;;;;;5063571;28;20139;-74
2022/10/18 07:25:46;;;;;;;10.38;3.38;;;;;;;;;;5074142;28;20510;-73
2022/10/18 07:28:12;;;;;;;12.20;3.20;;;;;;;;;;5072874;28;20078;-72
2022/10/18 07:30:39;;;;;;;18.80;3.67;;;;;;;;;;5069045;28;20485;-73
2022/10/18 07:33:05;;;;;;;14.77;3.80;;;;;;;;;;5065507;28;20127;-73
2022/10/18 07:35:32;;;;;;;11.15;3.05;;;;;;;;;;5059740;28;20148;-71
2022/10/18 07:37:58;;;;;;;14.40;3.63;;;;;;;;;;5072810;28;20083;-71
2022/10/18 07:40:24;;;;;;;12.35;2.38;;;;;;;;;;5053567;28;20048;-73
2022/10/18 07:42:51;;;;;;;14.93;3.10;;;;;;;;;;5061498;28;20535;-73
2022/10/18 07:45:17;;;;;;;18.55;3.88;;;;;;;;;;5073137;28;20504;-72
2022/10/18 07:47:43;;;;;;;22.15;3.17;;;;;;;;;;5074009;28;20075;-73
2022/10/18 07:50:10;;;;;;;20.33;3.40;;;;;;;;;;5073919;28;20040;-73
2022/10/18 07:52:36;;;;;;;11.05;2.50;;;;;;;;;;5073711;28;20047;-72
2022/10/18 07:55:03;;;;;;;52.40;4.22;;;;;;;;;;5073737;28;20131;-73
2022/10/18 07:57:29;;;;;;;16.92;3.25;;;;;;;;;;5073638;28;20135;-72
2022/10/18 07:59:56;;;;;;;16.25;3.10;;;;;;;;;;5073955;28;20044;-72
2022/10/18 08:02:23;;;;;;;7.63;3.00;;;;;;;;;;5073979;28;20167;-72
2022/10/18 08:04:49;;;;;;;21.65;3.83;;;;;;;;;;5073540;28;20044;-72
2022/10/18 08:07:16;;;;;;;10.07;3.28;;;;;;;;;;5059326;28;20081;-72
2022/10/18 08:09:42;;;;;;;14.55;3.45;;;;;;;;;;5072334;28;20123;-73
2022/10/18 08:12:08;;;;;;;8.65;2.90;;;;;;;;;;5055979;28;20435;-79
2022/10/18 08:14:35;;;;;;;16.70;3.30;;;;;;;;;;5062632;28;20064;-77
2022/10/18 08:17:01;;;;;;;31.30;4.43;;;;;;;;;;5071390;28;20469;-77
2022/10/18 08:19:28;;;;;;;24.67;4.13;;;;;;;;;;5070375;28;20396;-70
2022/10/18 08:21:54;;;;;;;23.13;3.65;;;;;;;;;;5072948;28;20053;-71
2022/10/18 08:24:21;;;;;;;7.10;2.92;;;;;;;;;;5072565;28;20092;-71
2022/10/18 08:26:48;;;;;;;4.57;2.72;;;;;;;;;;5072478;28;20084;-73
2022/10/18 08:29:14;;;;;;;25.50;4.47;;;;;;;;;;5062841;28;20128;-72
2022/10/18 08:31:51;;;;;;;13.32;3.00;;;;;;;;;;5058056;28;20040;-70
2022/10/18 08:34:17;;;;;;;21.67;4.03;;;;;;;;;;5072534;28;20044;-70
2022/10/18 08:36:45;;;;;;;;;;;;;;;;;;5072612;28;20496;-70
2022/10/18 08:39:11;;;;;;;9.50;2.83;;;;;;;;;;5071305;28;19946;-70
2022/10/18 08:41:41;;;;;;;26.40;3.30;;;;;;;;;;5072166;28;20064;-70
2022/10/18 08:44:19;;;;;;;34.17;4.90;;;;;;;;;;5070790;28;20076;-70
2022/10/18 08:46:50;;;;;;;10.68;3.03;;;;;;;;;;5065255;28;20084;-71
2022/10/18 08:49:22;;;;;;;4.05;2.60;;;;;;;;;;5064733;28;20473;-70
2022/10/18 08:51:50;;;;;;;13.98;3.40;;;;;;;;;;5072282;28;20049;-71
2022/10/18 08:54:32;;;;;;;5.68;2.60;;;;;;;;;;5071937;28;20045;-72
2022/10/18 08:57:00;;;;;;;17.95;3.28;;;;;;;;;;5070654;28;20500;-71
2022/10/18 08:59:33;;;;;;;16.38;3.60;;;;;;;;;;5051023;28;20045;-72
2022/10/18 09:02:25;;;;;;;9.13;3.30;;;;;;;;;;5064340;28;20048;-71
2022/10/18 09:04:58;;;;;;;6.28;3.22;;;;;;;;;;5067546;28;20147;-71
2022/10/18 09:07:43;;;;;;;11.50;2.90;;;;;;;;;;5059260;28;20147;-70
2022/10/18 09:10:40;;;;;;;5.55;3.08;;;;;;;;;;5070763;28;20168;-71
2022/10/18 09:13:25;;;;;;;6.97;2.90;;;;;;;;;;5071658;28;20083;-71
2022/10/18 09:15:59;;;;;;;10.95;4.22;;;;;;;;;;5071766;28;20056;-70
2022/10/18 09:18:31;;;;;;;4.45;3.67;;;;;;;;;;5071572;28;20036;-71
2022/10/18 09:20:59;;;;;;;8.48;3.08;;;;;;;;;;5064218;28;20404;-71
2022/10/18 09:23:44;;;;;;;11.48;3.35;;;;;;;;;;5061736;28;20044;-71
2022/10/18 09:26:21;;;;;;;12.63;4.07;;;;;;;;;;5045235;28;20044;-71
2022/10/18 09:29:26;;;;;;;4.68;3.58;;;;;;;;;;5056175;28;20053;-70
2022/10/18 09:31:52;;;;;;;6.60;3.80;;;;;;;;;;5009379;28;20169;-70
2022/10/18 09:34:32;;;;;;;12.10;4.18;;;;;;;;;;5009295;28;20073;-71
2022/10/18 09:36:58;;;;;;;3.78;3.45;;;;;;;;;;5041966;28;20510;-72
2022/10/18 09:39:28;;;;;;;8.93;3.08;;;;;;;;;;5071356;28;20136;-71
2022/10/18 09:42:00;;;;;;;7.75;2.92;;;;;;;;;;5071569;28;20476;-70
2022/10/18 09:44:36;;;;;;;3.53;3.13;;;;;;;;;;5070177;28;20102;-70
2022/10/18 09:47:23;;;;;;;4.95;3.30;;;;;;;;;;5071477;28;20135;-70
2022/10/18 09:49:53;;;;;;;5.53;3.22;;;;;;;;;;5071020;28;20044;-70
2022/10/18 09:52:23;;;;;;;4.35;3.47;;;;;;;;;;5071183;28;20128;-70
2022/10/18 09:54:54;;;;;;;3.72;3.42;;;;;;;;;;5071014;28;20037;-70
2022/10/18 09:57:22;;;;;;;4.70;3.65;;;;;;;;;;5071386;28;20440;-70
2022/10/18 09:59:49;;;;;;;5.65;3.88;;;;;;;;;;5071010;28;20062;-72
2022/10/18 10:02:17;;;;;;;4.70;3.90;;;;;;;;;;5071115;28;20494;-71
2022/10/18 10:04:43;;;;;;;;;;;;;;;;;;5071669;28;20052;-70
2022/10/18 10:07:15;;;;;;;4.32;3.92;;;;;;;;;;5065596;28;20423;-70
2022/10/18 10:09:54;;;;;;;3.92;3.30;;;;;;;;;;5071179;28;20132;-71
2022/10/18 10:12:26;;;;;;;4.28;3.88;;;;;;;;;;5071277;28;20491;-71
2022/10/18 10:14:53;;;;;;;4.70;3.55;;;;;;;;;;5071188;28;20159;-71
2022/10/18 10:17:22;;;;;;;4.07;3.70;;;;;;;;;;5069141;28;20548;-72
2022/10/18 10:19:57;;;;;;;5.55;3.30;;;;;;;;;;5050548;28;20321;-70
2022/10/18 10:22:31;;;;;;;3.33;3.03;;;;;;;;;;5057863;28;20396;-70
2022/10/18 10:24:58;;;;;;;2.50;2.30;;;;;;;;;;5071064;28;20139;-70
2022/10/18 10:27:42;;;;;;;3.10;2.20;;;;;;;;;;5069082;28;20241;-71
2022/10/18 10:30:20;;;;;;;3.30;2.20;;;;;;;;;;5069340;28;20492;-73
2022/10/18 10:32:48;;;;;;;2.50;2.00;;;;;;;;;;5071001;28;20048;-72
2022/10/18 10:35:30;;;;;;;1.92;1.83;;;;;;;;;;5057941;28;20119;-73
2022/10/18 10:38:24;;;;;;;2.15;1.80;;;;;;;;;;5056947;28;20040;-71
2022/10/18 10:40:50;;;;;;;2.90;1.73;;;;;;;;;;5070648;28;20090;-70
2022/10/18 10:43:32;;;;;;;2.05;1.58;;;;;;;;;;5070612;28;20048;-72
2022/10/18 10:46:11;;;;;;;2.35;1.85;;;;;;;;;;5070931;28;20049;-72
2022/10/18 10:48:41;;;;;;;2.28;1.80;;;;;;;;;;5070500;28;20097;-71
2022/10/18 10:51:11;;;;;;;3.20;2.00;;;;;;;;;;5070929;28;20044;-71
2022/10/18 10:53:39;;;;;;;3.42;1.50;;;;;;;;;;5071029;28;20131;-71
2022/10/18 10:56:12;;;;;;;2.50;1.25;;;;;;;;;;5069985;28;20135;-71
2022/10/18 10:58:41;;;;;;;2.83;1.50;;;;;;;;;;5070989;28;20048;-70
2022/10/18 11:01:19;;;;;;;2.58;1.05;;;;;;;;;;5070721;28;20127;-72
2022/10/18 11:03:47;;;;;;;2.35;1.23;;;;;;;;;;5051394;28;20135;-71
2022/10/18 11:06:30;;;;;;;4.28;1.15;;;;;;;;;;5066285;28;20044;-71
2022/10/18 11:08:58;;;;;;;3.38;1.13;;;;;;;;;;5067169;28;20068;-71
2022/10/18 11:11:29;;;;;;;2.50;1.00;;;;;;;;;;5070616;28;20045;-71
2022/10/18 11:14:00;;;;;;;4.32;1.00;;;;;;;;;;5070530;28;20133;-70
2022/10/18 11:16:49;;;;;;;2.15;1.10;;;;;;;;;;5056459;28;20049;-71
2022/10/18 11:19:36;;;;;;;3.00;1.20;;;;;;;;;;5074099;28;20049;-71
2022/10/18 11:22:02;;;;;;;;;;;;;;;;;;5074296;28;20048;-73
2022/10/18 11:24:29;;;;;;;3.15;1.15;;;;;;;;;;5062060;28;20055;-80
2022/10/18 11:27:01;;;;;;;2.47;1.20;;;;;;;;;;5058816;28;20484;-81
2022/10/18 11:29:47;;;;;;;1.98;1.33;;;;;;;;;;5072701;28;20135;-81
2022/10/18 11:32:20;;;;;;;3.70;0.98;;;;;;;;;;5065559;28;20044;-81
2022/10/18 11:35:25;;;;;;;3.00;0.98;;;;;;;;;;5073695;28;20464;-81
2022/10/18 11:37:54;;;;;;;2.80;1.07;;;;;;;;;;5031708;28;20049;-81
2022/10/18 11:40:32;;;;;;;2.03;1.30;;;;;;;;;;5031729;28;20050;-81
2022/10/18 11:43:11;;;;;;;3.05;1.10;;;;;;;;;;5055844;28;20087;-81
2022/10/18 11:45:46;;;;;;;2.13;1.00;;;;;;;;;;5073982;28;20088;-80
2022/10/18 11:48:26;;;;;;;2.13;1.00;;;;;;;;;;5074218;28;20131;-80
2022/10/18 11:50:58;;;;;;;3.25;1.42;;;;;;;;;;5073941;28;20559;-81
2022/10/18 11:53:40;;;;;;;3.50;1.27;;;;;;;;;;5074207;28;20072;-81
2022/10/18 11:56:18;;;;;;;2.30;1.10;;;;;;;;;;5072896;28;20102;-80
2022/10/18 11:58:45;;;;;;;2.63;1.10;;;;;;;;;;5074009;28;20453;-81
2022/10/18 12:01:14;;;;;;;2.60;1.33;;;;;;;;;;5073710;28;20468;-81
2022/10/18 12:03:40;;;;;;;3.90;1.25;;;;;;;;;;5073730;28;20066;-81
2022/10/18 12:06:19;;;;;;;2.15;1.23;;;;;;;;;;5073558;28;20044;-81
2022/10/18 12:08:48;;;;;;;2.03;1.35;;;;;;;;;;5073720;28;20049;-80
2022/10/18 12:11:18;;;;;;;2.75;1.20;;;;;;;;;;5073536;28;20563;-81
2022/10/18 12:13:49;;;;;;;2.90;1.40;;;;;;;;;;5073359;28;20047;-81
2022/10/18 12:16:18;;;;;;;2.97;1.40;;;;;;;;;;5056969;28;20053;-76
2022/10/18 12:19:10;;;;;;;1.90;1.30;;;;;;;;;;5060095;28;20056;-75
2022/10/18 12:21:37;;;;;;;3.10;1.38;;;;;;;;;;5057419;28;20508;-75
2022/10/18 12:24:07;;;;;;;3.00;1.40;;;;;;;;;;5068189;28;20129;-75
2022/10/18 12:26:33;;;;;;;4.38;1.52;;;;;;;;;;5073204;28;20055;-75
2022/10/18 12:29:00;;;;;;;;;;;;;;;;;;5072569;28;20507;-75
2022/10/18 12:31:26;;;;;;;;;;;;;;;;;;5073508;28;19928;-74
2022/10/18 12:33:52;;;;;;;;;;;;;;;;;;5073549;28;20018;-73
2022/10/18 12:36:19;;;;;;;;;;;;;;;;;;5073406;28;19931;-72
2022/10/18 12:38:53;;;;;;;4.22;1.50;;;;;;;;;;5072919;28;20402;-72
2022/10/18 12:41:22;;;;;;;3.50;1.70;;;;;;;;;;5053170;28;20187;-71
2022/10/18 12:43:52;;;;;;;3.17;1.63;;;;;;;;;;5053101;28;20140;-72
2022/10/18 12:46:19;;;;;;;5.35;1.70;;;;;;;;;;5071807;28;20048;-72
2022/10/18 12:48:58;;;;;;;5.20;1.92;;;;;;;;;;5067385;28;20056;-72
2022/10/18 12:51:25;;;;;;;3.83;1.90;;;;;;;;;;5052215;28;20041;-72
2022/10/18 12:53:51;;;;;;;3.75;1.67;;;;;;;;;;5057256;28;20568;-72
2022/10/18 12:56:27;;;;;;;3.13;1.90;;;;;;;;;;5067807;28;20120;-73
2022/10/18 12:59:12;;;;;;;6.90;2.22;;;;;;;;;;5056410;28;20480;-73
2022/10/18 13:01:54;;;;;;;3.35;1.92;;;;;;;;;;5072373;28;20079;-73
2022/10/18 13:04:26;;;;;;;2.33;1.33;;;;;;;;;;5051566;28;20057;-73
2022/10/18 13:06:56;;;;;;;2.85;1.50;;;;;;;;;;5070410;28;20049;-72
2022/10/18 13:09:29;;;;;;;4.63;1.88;;;;;;;;;;5072222;28;20040;-72
2022/10/18 13:11:59;;;;;;;4.60;1.70;;;;;;;;;;5061715;28;20044;-71
2022/10/18 13:14:36;;;;;;;4.20;1.50;;;;;;;;;;5052220;28;20123;-72
2022/10/18 13:17:34;;;;;;;3.95;1.80;;;;;;;;;;5067613;28;20052;-72
2022/10/18 13:20:01;;;;;;;3.58;1.60;;;;;;;;;;5072447;28;20076;-72
2022/10/18 13:22:56;;;;;;;4.57;1.80;;;;;;;;;;5072047;28;20058;-72
2022/10/18 13:25:22;;;;;;;4.53;1.85;;;;;;;;;;5064810;28;20048;-76
2022/10/18 13:27:54;;;;;;;2.78;1.50;;;;;;;;;;5069144;28;20056;-76
2022/10/18 13:30:50;;;;;;;4.28;1.70;;;;;;;;;;5071329;28;20135;-76
2022/10/18 13:33:35;;;;;;;2.75;1.50;;;;;;;;;;5057473;28;20135;-76
2022/10/18 13:36:10;;;;;;;3.95;1.38;;;;;;;;;;5071838;28;20060;-76
2022/10/18 13:38:37;;;;;;;3.80;1.35;;;;;;;;;;5072018;28;20049;-76
2022/10/18 13:41:14;;;;;;;3.13;1.20;;;;;;;;;;5070879;28;20530;-76
2022/10/18 13:43:54;;;;;;;2.88;1.25;;;;;;;;;;5066604;28;20123;-74
2022/10/18 13:46:21;;;;;;;2.38;1.00;;;;;;;;;;5051436;28;20140;-74
2022/10/18 13:48:51;;;;;;;4.65;1.17;;;;;;;;;;5050070;28;20083;-76
2022/10/18 13:51:27;;;;;;;3.65;0.70;;;;;;;;;;5051269;28;20066;-73
2022/10/18 13:54:01;;;;;;;5.30;0.80;;;;;;;;;;5051324;28;20472;-73
2022/10/18 13:56:28;;;;;;;2.72;1.02;;;;;;;;;;5054520;28;20076;-76
2022/10/18 13:59:07;;;;;;;3.97;1.02;;;;;;;;;;5071614;28;20506;-76
2022/10/18 14:01:40;;;;;;;3.63;0.77;;;;;;;;;;5071819;28;20052;-77
2022/10/18 14:04:07;;;;;;;3.92;0.77;;;;;;;;;;5071877;28;20313;-77
2022/10/18 14:06:37;;;;;;;4.05;1.00;;;;;;;;;;5071776;28;20139;-76
2022/10/18 14:09:22;;;;;;;3.17;0.80;;;;;;;;;;5071430;28;20411;-73
2022/10/18 14:12:24;;;;;;;5.15;1.67;;;;;;;;;;5071418;28;20040;-73
2022/10/18 14:14:56;;;;;;;4.13;0.90;;;;;;;;;;5071706;28;20061;-73
2022/10/18 14:17:39;;;;;;;5.20;1.50;;;;;;;;;;5071727;28;20415;-73
2022/10/18 14:20:15;;;;;;;4.35;1.30;;;;;;;;;;5071933;28;20052;-73
2022/10/18 14:23:00;;;;;;;3.00;1.00;;;;;;;;;;5053719;28;20123;-73
2022/10/18 14:25:31;;;;;;;3.17;1.15;;;;;;;;;;5071092;28;20404;-73
2022/10/18 14:28:15;;;;;;;5.80;1.02;;;;;;;;;;5071115;28;20139;-74
2022/10/18 14:30:53;;;;;;;3.40;0.90;;;;;;;;;;5070616;28;20535;-71
2022/10/18 14:33:26;;;;;;;3.05;1.00;;;;;;;;;;5071052;28;20058;-72
2022/10/18 14:36:00;;;;;;;3.88;0.82;;;;;;;;;;5070578;28;20526;-74
2022/10/18 14:38:26;;;;;;;2.70;0.98;;;;;;;;;;5070728;28;20055;-73
2022/10/18 14:41:14;;;;;;;4.43;1.05;;;;;;;;;;5070856;28;20049;-71
2022/10/18 14:43:41;;;;;;;3.97;0.98;;;;;;;;;;5070850;28;20144;-72
2022/10/18 14:46:18;;;;;;;3.25;0.80;;;;;;;;;;5070740;28;20408;-73
2022/10/18 14:48:52;;;;;;;3.00;0.95;;;;;;;;;;5070841;28;20107;-72
2022/10/18 14:51:19;;;;;;;3.17;1.02;;;;;;;;;;5070773;28;20048;-72
2022/10/18 14:53:46;;;;;;;3.53;0.98;;;;;;;;;;5074608;28;20041;-73
2022/10/18 14:56:19;;;;;;;4.22;0.73;;;;;;;;;;5074587;28;20119;-72
2022/10/18 14:58:46;;;;;;;4.03;0.90;;;;;;;;;;5074666;28;20052;-70